createdAt,value
2023-03-06T00:00:17.844Z,0
2023-03-06T00:01:17.914Z,0
2023-03-06T00:02:17.857Z,0
2023-03-06T00:03:17.888Z,0
2023-03-06T00:04:17.859Z,0
2023-03-06T00:05:17.867Z,0
2023-03-06T00:06:18.194Z,0
2023-03-06T00:07:20.698Z,0
2023-03-06T00:08:17.863Z,0
2023-03-06T00:09:17.867Z,0
2023-03-06T00:10:17.746Z,0
2023-03-06T00:11:17.951Z,0
2023-03-06T00:12:21.441Z,0
2023-03-06T00:13:17.869Z,0
2023-03-06T00:14:17.947Z,0
2023-03-06T00:15:17.920Z,0
2023-03-06T00:16:18.037Z,0
2023-03-06T00:17:17.976Z,0
2023-03-06T00:18:20.814Z,0
2023-03-06T00:19:17.749Z,0
2023-03-06T00:20:17.924Z,0
2023-03-06T00:21:17.867Z,0
2023-03-06T00:22:17.919Z,0
2023-03-06T00:23:20.584Z,0
2023-03-06T00:24:17.715Z,0
2023-03-06T00:25:17.893Z,0
2023-03-06T00:26:17.739Z,0
2023-03-06T00:27:17.907Z,0
2023-03-06T00:28:18.296Z,0
2023-03-06T00:29:20.680Z,0
2023-03-06T00:30:17.989Z,0
2023-03-06T00:31:18.028Z,0
2023-03-06T00:32:18.134Z,0
2023-03-06T00:33:17.944Z,0
2023-03-06T00:34:21.007Z,0
2023-03-06T00:35:17.961Z,0
2023-03-06T00:36:17.896Z,0
2023-03-06T00:37:17.927Z,0
2023-03-06T00:38:17.962Z,0
2023-03-06T00:39:17.897Z,0
2023-03-06T00:40:17.807Z,0
2023-03-06T00:41:17.736Z,0
2023-03-06T00:42:17.978Z,0
2023-03-06T00:43:17.932Z,0
2023-03-06T00:44:17.742Z,0
2023-03-06T00:45:20.751Z,0
2023-03-06T00:46:18.144Z,0
2023-03-06T00:47:17.977Z,0
2023-03-06T00:48:17.938Z,0
2023-03-06T00:49:18.014Z,0
2023-03-06T00:50:17.978Z,0
2023-03-06T00:51:23.711Z,0
2023-03-06T00:52:17.768Z,0
2023-03-06T00:53:17.947Z,0
2023-03-06T00:54:17.932Z,0
2023-03-06T00:55:17.838Z,0
2023-03-06T00:56:22.320Z,0
2023-03-06T00:57:17.950Z,0
2023-03-06T00:58:17.930Z,0
2023-03-06T00:59:17.938Z,0
2023-03-06T01:00:17.995Z,0
2023-03-06T01:01:18.314Z,0
2023-03-06T01:02:18.201Z,0
2023-03-06T01:03:18.027Z,0
2023-03-06T01:04:18.006Z,0
2023-03-06T01:05:18.011Z,0
2023-03-06T01:06:17.965Z,0
2023-03-06T01:07:20.823Z,0
2023-03-06T01:08:17.971Z,0
2023-03-06T01:09:18.002Z,0
2023-03-06T01:10:17.994Z,0
2023-03-06T01:11:17.800Z,0
2023-03-06T01:12:17.978Z,0
2023-03-06T01:13:17.961Z,0
2023-03-06T01:14:17.861Z,0
2023-03-06T01:15:17.942Z,0
2023-03-06T01:16:18.130Z,0
2023-03-06T01:17:17.986Z,0
2023-03-06T01:18:20.804Z,0
2023-03-06T01:19:17.995Z,0
2023-03-06T01:20:17.968Z,0
2023-03-06T01:21:18.007Z,0
2023-03-06T01:22:17.965Z,0
2023-03-06T01:23:21.052Z,0
2023-03-06T01:24:18.025Z,0
2023-03-06T01:25:17.680Z,0
2023-03-06T01:26:18.002Z,0
2023-03-06T01:27:18.012Z,0
2023-03-06T01:28:17.955Z,0
2023-03-06T01:29:21.060Z,0
2023-03-06T01:30:18.026Z,0
2023-03-06T01:31:18.115Z,0
2023-03-06T01:32:18.053Z,0
2023-03-06T01:33:18.005Z,0
2023-03-06T01:34:19.094Z,0
2023-03-06T01:35:17.941Z,0
2023-03-06T01:36:18.020Z,0
2023-03-06T01:37:18.062Z,0
2023-03-06T01:38:17.989Z,0
2023-03-06T01:39:17.881Z,0
2023-03-06T01:40:21.144Z,0
2023-03-06T01:41:18.087Z,0
2023-03-06T01:42:18.041Z,0
2023-03-06T01:43:18.015Z,0
2023-03-06T01:44:18.005Z,0
2023-03-06T01:45:20.789Z,0
2023-03-06T01:46:18.264Z,0
2023-03-06T01:47:18.028Z,0
2023-03-06T01:48:18.025Z,0
2023-03-06T01:49:18.055Z,0
2023-03-06T01:50:18.022Z,0
2023-03-06T01:51:20.808Z,0
2023-03-06T01:52:18.092Z,0
2023-03-06T01:53:18.069Z,0
2023-03-06T01:54:18.179Z,0
2023-03-06T01:55:18.021Z,0
2023-03-06T01:56:21.111Z,0
2023-03-06T01:57:18.026Z,0
2023-03-06T01:58:18.054Z,0
2023-03-06T01:59:18.047Z,0
2023-03-06T02:00:18.118Z,0
2023-03-06T02:01:18.314Z,0
2023-03-06T02:02:18.310Z,0
2023-03-06T02:03:18.024Z,0
2023-03-06T02:04:18.020Z,0
2023-03-06T02:05:18.079Z,0
2023-03-06T02:06:18.079Z,0
2023-03-06T02:07:20.960Z,0
2023-03-06T02:08:18.099Z,0
2023-03-06T02:09:18.101Z,0
2023-03-06T02:10:18.124Z,0
2023-03-06T02:11:18.365Z,0
2023-03-06T02:12:18.189Z,0
2023-03-06T02:13:17.918Z,0
2023-03-06T02:14:18.110Z,0
2023-03-06T02:15:18.220Z,0
2023-03-06T02:16:18.083Z,0
2023-03-06T02:17:18.121Z,0
2023-03-06T02:18:18.091Z,0
2023-03-06T02:19:18.111Z,0
2023-03-06T02:20:18.084Z,0
2023-03-06T02:21:18.117Z,0
2023-03-06T02:22:18.247Z,0
2023-03-06T02:23:18.183Z,0
2023-03-06T02:24:18.097Z,0
2023-03-06T02:25:18.134Z,0
2023-03-06T02:26:18.112Z,0
2023-03-06T02:27:18.146Z,0
2023-03-06T02:28:18.100Z,0
2023-03-06T02:29:18.129Z,0
2023-03-06T02:30:17.983Z,0
2023-03-06T02:31:18.440Z,0
2023-03-06T02:32:18.393Z,0
2023-03-06T02:33:18.087Z,0
2023-03-06T02:34:19.182Z,0
2023-03-06T02:35:18.149Z,0
2023-03-06T02:36:18.135Z,0
2023-03-06T02:37:18.171Z,0
2023-03-06T02:38:18.113Z,0
2023-03-06T02:39:21.069Z,0
2023-03-06T02:40:18.091Z,0
2023-03-06T02:41:18.139Z,0
2023-03-06T02:42:18.138Z,0
2023-03-06T02:43:18.177Z,0
2023-03-06T02:44:18.122Z,0
2023-03-06T02:45:21.210Z,0
2023-03-06T02:46:18.527Z,0
2023-03-06T02:47:18.169Z,0
2023-03-06T02:48:18.118Z,0
2023-03-06T02:49:18.178Z,0
2023-03-06T02:50:21.126Z,0
2023-03-06T02:51:18.151Z,0
2023-03-06T02:52:18.255Z,0
2023-03-06T02:53:18.186Z,0
2023-03-06T02:54:18.152Z,0
2023-03-06T02:55:18.147Z,0
2023-03-06T02:56:20.937Z,0
2023-03-06T02:57:18.225Z,0
2023-03-06T02:58:18.122Z,0
2023-03-06T02:59:18.161Z,0
2023-03-06T03:00:18.139Z,0
2023-03-06T03:01:21.431Z,0
2023-03-06T03:02:18.220Z,0
2023-03-06T03:03:18.162Z,0
2023-03-06T03:04:18.418Z,0
2023-03-06T03:05:18.188Z,0
2023-03-06T03:06:18.132Z,0
2023-03-06T03:07:18.293Z,0
2023-03-06T03:08:18.176Z,0
2023-03-06T03:09:18.026Z,0
2023-03-06T03:10:18.180Z,0
2023-03-06T03:11:18.163Z,0
2023-03-06T03:12:21.385Z,0
2023-03-06T03:13:18.151Z,0
2023-03-06T03:14:18.199Z,0
2023-03-06T03:15:18.154Z,0
2023-03-06T03:16:18.455Z,0
2023-03-06T03:17:18.331Z,0
2023-03-06T03:18:18.197Z,0
2023-03-06T03:19:18.145Z,0
2023-03-06T03:20:18.201Z,0
2023-03-06T03:21:18.237Z,0
2023-03-06T03:22:18.156Z,0
2023-03-06T03:23:21.201Z,0
2023-03-06T03:24:18.333Z,0
2023-03-06T03:25:18.203Z,0
2023-03-06T03:26:18.212Z,0
2023-03-06T03:27:20.908Z,0
2023-03-06T03:28:18.243Z,0
2023-03-06T03:29:18.219Z,0
2023-03-06T03:30:18.278Z,0
2023-03-06T03:31:18.564Z,0
2023-03-06T03:32:18.359Z,0
2023-03-06T03:33:28.141Z,0
2023-03-06T03:34:21.267Z,0
2023-03-06T03:35:18.199Z,0
2023-03-06T03:36:18.193Z,0
2023-03-06T03:37:18.216Z,0
2023-03-06T03:38:18.245Z,0
2023-03-06T03:39:18.191Z,0
2023-03-06T03:40:18.216Z,0
2023-03-06T03:41:18.192Z,0
2023-03-06T03:42:18.241Z,0
2023-03-06T03:43:18.242Z,0
2023-03-06T03:44:18.334Z,0
2023-03-06T03:45:19.281Z,0
2023-03-06T03:46:18.394Z,0
2023-03-06T03:47:18.238Z,0
2023-03-06T03:48:18.277Z,0
2023-03-06T03:49:18.192Z,0
2023-03-06T03:50:20.970Z,0
2023-03-06T03:51:18.212Z,0
2023-03-06T03:52:18.206Z,0
2023-03-06T03:53:18.242Z,0
2023-03-06T03:54:18.295Z,0
2023-03-06T03:55:18.243Z,0
2023-03-06T03:56:21.414Z,0
2023-03-06T03:57:18.300Z,0
2023-03-06T03:58:18.278Z,0
2023-03-06T03:59:18.220Z,0
2023-03-06T04:00:18.249Z,0
2023-03-06T04:01:21.392Z,0
2023-03-06T04:02:18.434Z,0
2023-03-06T04:03:18.259Z,0
2023-03-06T04:04:18.225Z,0
2023-03-06T04:05:18.261Z,0
2023-03-06T04:06:18.251Z,0
2023-03-06T04:07:22.837Z,0
2023-03-06T04:08:18.274Z,0
2023-03-06T04:09:18.244Z,0
2023-03-06T04:10:18.269Z,0
2023-03-06T04:11:18.226Z,0
2023-03-06T04:12:21.039Z,0
2023-03-06T04:13:18.314Z,0
2023-03-06T04:14:18.324Z,0
2023-03-06T04:15:25.782Z,0
2023-03-06T04:16:18.423Z,0
2023-03-06T04:17:18.260Z,0
2023-03-06T04:18:18.749Z,0
2023-03-06T04:19:18.264Z,0
2023-03-06T04:20:18.256Z,0
2023-03-06T04:21:18.238Z,0
2023-03-06T04:22:18.346Z,0
2023-03-06T04:23:21.326Z,0
2023-03-06T04:24:18.274Z,0
2023-03-06T04:25:18.276Z,0
2023-03-06T04:26:18.247Z,0
2023-03-06T04:27:18.269Z,0
2023-03-06T04:28:18.287Z,0
2023-03-06T04:29:18.322Z,0
2023-03-06T04:30:18.350Z,0
2023-03-06T04:31:18.570Z,0
2023-03-06T04:32:21.001Z,0
2023-03-06T04:33:18.269Z,0
2023-03-06T04:34:21.446Z,0
2023-03-06T04:35:18.339Z,0
2023-03-06T04:36:18.286Z,0
2023-03-06T04:37:18.286Z,0
2023-03-06T04:38:18.386Z,0
2023-03-06T04:39:18.373Z,0
2023-03-06T04:40:18.365Z,0
2023-03-06T04:41:18.661Z,0
2023-03-06T04:42:18.305Z,0
2023-03-06T04:43:18.316Z,0
2023-03-06T04:44:17.962Z,0
2023-03-06T04:45:18.308Z,0
2023-03-06T04:46:18.361Z,0
2023-03-06T04:47:21.291Z,0
2023-03-06T04:48:18.312Z,0
2023-03-06T04:49:18.340Z,0
2023-03-06T04:50:18.337Z,0
2023-03-06T04:51:18.352Z,0
2023-03-06T04:52:18.315Z,0
2023-03-06T04:53:18.312Z,0
2023-03-06T04:54:21.154Z,0
2023-03-06T04:55:18.365Z,0
2023-03-06T04:56:18.311Z,0
2023-03-06T04:57:18.436Z,0
2023-03-06T04:58:18.336Z,0
2023-03-06T04:59:18.381Z,0
2023-03-06T05:00:18.308Z,0
2023-03-06T05:01:21.537Z,0
2023-03-06T05:02:18.482Z,0
2023-03-06T05:03:18.389Z,0
2023-03-06T05:04:18.334Z,0
2023-03-06T05:05:18.387Z,0
2023-03-06T05:06:21.093Z,0
2023-03-06T05:07:18.389Z,0
2023-03-06T05:08:18.392Z,0
2023-03-06T05:09:18.362Z,0
2023-03-06T05:10:18.381Z,0
2023-03-06T05:11:18.378Z,0
2023-03-06T05:12:21.465Z,0
2023-03-06T05:13:18.188Z,0
2023-03-06T05:14:18.437Z,0
2023-03-06T05:15:18.352Z,0
2023-03-06T05:16:18.607Z,0
2023-03-06T05:17:21.219Z,0
2023-03-06T05:18:18.357Z,0
2023-03-06T05:19:18.560Z,0
2023-03-06T05:20:18.426Z,0
2023-03-06T05:21:18.430Z,0
2023-03-06T05:22:18.356Z,0
2023-03-06T05:23:21.154Z,0
2023-03-06T05:24:18.425Z,0
2023-03-06T05:25:18.396Z,0
2023-03-06T05:26:18.543Z,0
2023-03-06T05:27:21.369Z,0
2023-03-06T05:28:21.448Z,0
2023-03-06T05:29:18.455Z,0
2023-03-06T05:30:18.486Z,0
2023-03-06T05:31:18.503Z,0
2023-03-06T05:32:18.957Z,0
2023-03-06T05:33:18.433Z,0
2023-03-06T05:34:21.369Z,0
2023-03-06T05:35:18.597Z,0
2023-03-06T05:36:18.374Z,0
2023-03-06T05:37:18.936Z,0
2023-03-06T05:38:18.419Z,0
2023-03-06T05:39:21.405Z,0
2023-03-06T05:40:18.456Z,0
2023-03-06T05:41:18.422Z,4
2023-03-06T05:42:18.447Z,4
2023-03-06T05:43:18.385Z,0
2023-03-06T05:44:18.469Z,0
2023-03-06T05:45:18.386Z,0
2023-03-06T05:46:18.695Z,4
2023-03-06T05:47:18.447Z,4
2023-03-06T05:48:18.408Z,0
2023-03-06T05:49:18.475Z,4
2023-03-06T05:50:21.209Z,4
2023-03-06T05:51:18.430Z,4
2023-03-06T05:52:18.644Z,4
2023-03-06T05:53:18.468Z,4
2023-03-06T05:54:18.426Z,4
2023-03-06T05:55:18.445Z,4
2023-03-06T05:56:18.439Z,8
2023-03-06T05:57:18.448Z,4
2023-03-06T05:58:18.608Z,8
2023-03-06T05:59:18.414Z,4
2023-03-06T06:00:18.474Z,8
2023-03-06T06:01:21.372Z,8
2023-03-06T06:02:19.308Z,8
2023-03-06T06:03:18.648Z,8
2023-03-06T06:04:18.440Z,8
2023-03-06T06:05:20.072Z,12
2023-03-06T06:06:18.507Z,8
2023-03-06T06:07:18.429Z,12
2023-03-06T06:08:18.468Z,12
2023-03-06T06:09:20.808Z,12
2023-03-06T06:10:18.460Z,16
2023-03-06T06:11:18.463Z,12
2023-03-06T06:12:19.499Z,12
2023-03-06T06:13:18.438Z,12
2023-03-06T06:14:18.468Z,12
2023-03-06T06:15:18.445Z,16
2023-03-06T06:16:19.097Z,16
2023-03-06T06:17:21.714Z,20
2023-03-06T06:18:18.496Z,20
2023-03-06T06:19:18.493Z,20
2023-03-06T06:20:18.467Z,20
2023-03-06T06:21:18.511Z,24
2023-03-06T06:22:18.493Z,24
2023-03-06T06:23:21.248Z,28
2023-03-06T06:24:18.508Z,28
2023-03-06T06:25:18.483Z,32
2023-03-06T06:26:18.524Z,28
2023-03-06T06:27:18.564Z,32
2023-03-06T06:28:21.449Z,32
2023-03-06T06:29:18.342Z,32
2023-03-06T06:30:18.507Z,36
2023-03-06T06:31:18.730Z,36
2023-03-06T06:32:18.767Z,40
2023-03-06T06:33:18.464Z,40
2023-03-06T06:34:21.679Z,44
2023-03-06T06:35:18.477Z,48
2023-03-06T06:36:18.267Z,48
2023-03-06T06:37:18.873Z,52
2023-03-06T06:38:18.515Z,60
2023-03-06T06:39:21.680Z,64
2023-03-06T06:40:18.509Z,68
2023-03-06T06:42:35.307Z,80
2023-03-06T06:42:47.795Z,84
2023-03-06T06:43:47.589Z,88
2023-03-06T06:44:47.897Z,92
2023-03-06T06:45:48.951Z,100
2023-03-06T06:47:33.321Z,100
2023-03-06T06:48:47.723Z,100
2023-03-06T06:49:47.789Z,100
2023-03-06T06:50:47.723Z,100
2023-03-06T06:51:47.970Z,96
2023-03-06T06:52:50.808Z,92
2023-03-06T06:53:47.831Z,92
2023-03-06T06:54:47.814Z,84
2023-03-06T06:55:47.749Z,80
2023-03-06T06:56:47.733Z,76
2023-03-06T06:57:47.891Z,76
2023-03-06T06:58:47.854Z,76
2023-03-06T06:59:47.716Z,76
2023-03-06T07:00:47.760Z,76
2023-03-06T07:01:48.123Z,80
2023-03-06T07:02:47.879Z,84
2023-03-06T07:03:52.291Z,84
2023-03-06T07:05:09.540Z,88
2023-03-06T07:05:47.821Z,92
2023-03-06T07:06:47.769Z,92
2023-03-06T07:07:47.793Z,96
2023-03-06T07:08:47.800Z,96
2023-03-06T07:09:47.958Z,100
2023-03-06T07:10:47.787Z,100
2023-03-06T07:11:47.827Z,100
2023-03-06T07:12:48.063Z,100
2023-03-06T07:13:47.787Z,92
2023-03-06T07:14:50.917Z,92
2023-03-06T07:15:48.003Z,88
2023-03-06T07:16:47.824Z,84
2023-03-06T07:17:49.998Z,88
2023-03-06T07:18:47.966Z,84
2023-03-06T07:19:49.047Z,84
2023-03-06T07:20:47.795Z,84
2023-03-06T07:21:47.816Z,88
2023-03-06T07:22:57.747Z,84
2023-03-06T07:23:47.803Z,92
2023-03-06T07:24:47.847Z,92
2023-03-06T07:25:50.769Z,92
2023-03-06T07:26:47.863Z,92
2023-03-06T07:27:56.522Z,92
2023-03-06T07:28:59.319Z,88
2023-03-06T07:29:47.826Z,88
2023-03-06T07:30:48.936Z,88
2023-03-06T07:31:47.830Z,88
2023-03-06T07:32:48.034Z,88
2023-03-06T07:33:47.836Z,92
2023-03-06T07:34:47.805Z,92
2023-03-06T07:35:48.076Z,96
2023-03-06T07:36:50.758Z,100
2023-03-06T07:37:47.825Z,100
2023-03-06T07:38:47.847Z,100
2023-03-06T07:39:47.824Z,104
2023-03-06T07:40:47.852Z,104
2023-03-06T07:41:50.900Z,104
2023-03-06T07:42:47.837Z,108
2023-03-06T07:43:47.815Z,108
2023-03-06T07:44:47.965Z,112
2023-03-06T07:45:47.817Z,112
2023-03-06T07:46:48.378Z,116
2023-03-06T07:47:50.613Z,116
2023-03-06T07:48:47.836Z,112
2023-03-06T07:49:47.867Z,112
2023-03-06T07:50:47.849Z,112
2023-03-06T07:51:47.851Z,108
2023-03-06T07:52:50.713Z,104
2023-03-06T07:53:47.847Z,104
2023-03-06T07:54:47.864Z,104
2023-03-06T07:55:47.851Z,112
2023-03-06T07:56:47.860Z,124
2023-03-06T07:57:47.987Z,132
2023-03-06T07:58:50.661Z,148
2023-03-06T07:59:47.859Z,160
2023-03-06T08:00:47.888Z,168
2023-03-06T08:01:47.873Z,172
2023-03-06T08:02:48.255Z,176
2023-03-06T08:03:51.020Z,176
2023-03-06T08:04:47.978Z,176
2023-03-06T08:05:47.896Z,180
2023-03-06T08:06:47.860Z,188
2023-03-06T08:07:47.892Z,200
2023-03-06T08:08:47.950Z,212
2023-03-06T08:09:47.978Z,216
2023-03-06T08:10:47.879Z,220
2023-03-06T08:11:47.867Z,220
2023-03-06T08:12:47.911Z,220
2023-03-06T08:13:47.923Z,220
2023-03-06T08:14:56.690Z,220
2023-03-06T08:15:47.864Z,228
2023-03-06T08:16:47.969Z,240
2023-03-06T08:17:47.870Z,256
2023-03-06T08:18:50.797Z,272
2023-03-06T08:19:47.908Z,288
2023-03-06T08:20:47.926Z,300
2023-03-06T08:21:47.941Z,308
2023-03-06T08:22:47.923Z,308
2023-03-06T08:23:47.913Z,312
2023-03-06T08:24:47.885Z,308
2023-03-06T08:25:47.930Z,300
2023-03-06T08:26:47.906Z,292
2023-03-06T08:27:47.951Z,280
2023-03-06T08:28:47.921Z,276
2023-03-06T08:29:47.943Z,276
2023-03-06T08:30:48.105Z,280
2023-03-06T08:31:48.199Z,292
2023-03-06T08:32:48.031Z,300
2023-03-06T08:33:47.935Z,308
2023-03-06T08:34:47.970Z,316
2023-03-06T08:35:48.029Z,316
2023-03-06T08:36:47.904Z,320
2023-03-06T08:37:48.152Z,320
2023-03-06T08:38:47.957Z,312
2023-03-06T08:39:47.912Z,308
2023-03-06T08:40:47.942Z,308
2023-03-06T08:41:50.939Z,304
2023-03-06T08:42:47.915Z,300
2023-03-06T08:43:50.660Z,308
2023-03-06T08:44:47.945Z,308
2023-03-06T08:45:48.349Z,308
2023-03-06T08:46:50.938Z,308
2023-03-06T08:47:47.974Z,312
2023-03-06T08:48:47.938Z,320
2023-03-06T08:49:47.996Z,324
2023-03-06T08:50:47.949Z,332
2023-03-06T08:51:47.923Z,340
2023-03-06T08:52:50.785Z,348
2023-03-06T08:53:50.730Z,356
2023-03-06T08:54:47.960Z,364
2023-03-06T08:55:47.962Z,364
2023-03-06T08:56:47.963Z,364
2023-03-06T08:57:50.705Z,356
2023-03-06T08:58:47.978Z,344
2023-03-06T08:59:47.965Z,324
2023-03-06T09:00:48.285Z,312
2023-03-06T09:01:48.169Z,308
2023-03-06T09:02:48.052Z,304
2023-03-06T09:03:47.952Z,312
2023-03-06T09:04:47.993Z,328
2023-03-06T09:05:47.986Z,344
2023-03-06T09:06:47.977Z,348
2023-03-06T09:07:47.948Z,344
2023-03-06T09:08:51.098Z,332
2023-03-06T09:09:47.993Z,328
2023-03-06T09:10:48.178Z,336
2023-03-06T09:11:47.958Z,344
2023-03-06T09:12:59.784Z,348
2023-03-06T09:13:47.960Z,348
2023-03-06T09:14:47.957Z,352
2023-03-06T09:15:47.982Z,352
2023-03-06T09:16:48.291Z,348
2023-03-06T09:17:48.617Z,340
2023-03-06T09:18:47.975Z,332
2023-03-06T09:19:51.060Z,344
2023-03-06T09:20:48.016Z,344
2023-03-06T09:21:48.146Z,344
2023-03-06T09:22:48.101Z,348
2023-03-06T09:23:47.964Z,356
2023-03-06T09:24:47.992Z,380
2023-03-06T09:25:48.062Z,400
2023-03-06T09:26:55.936Z,404
2023-03-06T09:27:53.401Z,392
2023-03-06T09:28:48.069Z,368
2023-03-06T09:29:48.008Z,352
2023-03-06T09:30:51.029Z,352
2023-03-06T09:31:48.072Z,360
2023-03-06T09:32:48.100Z,396
2023-03-06T09:33:48.143Z,436
2023-03-06T09:34:48.001Z,456
2023-03-06T09:35:48.239Z,472
2023-03-06T09:37:03.400Z,492
2023-03-06T09:37:47.996Z,512
2023-03-06T09:38:48.023Z,560
2023-03-06T09:39:48.055Z,664
2023-03-06T09:40:48.062Z,692
2023-03-06T09:41:51.166Z,764
2023-03-06T09:42:48.006Z,724
2023-03-06T09:43:48.005Z,644
2023-03-06T09:44:48.030Z,640
2023-03-06T09:45:48.251Z,572
2023-03-06T09:46:51.090Z,564
2023-03-06T09:47:48.023Z,624
2023-03-06T09:48:48.113Z,612
2023-03-06T09:49:48.184Z,608
2023-03-06T09:50:48.020Z,616
2023-03-06T09:51:48.021Z,660
2023-03-06T09:52:50.872Z,664
2023-03-06T09:53:48.058Z,664
2023-03-06T09:54:48.029Z,648
2023-03-06T09:55:48.045Z,588
2023-03-06T09:56:48.020Z,504
2023-03-06T09:57:53.394Z,440
2023-03-06T09:58:48.029Z,400
2023-03-06T09:59:48.029Z,364
2023-03-06T10:00:48.050Z,332
2023-03-06T10:01:48.035Z,304
2023-03-06T10:02:48.706Z,272
2023-03-06T10:03:50.986Z,256
2023-03-06T10:04:48.421Z,248
2023-03-06T10:05:48.166Z,248
2023-03-06T10:06:48.025Z,244
2023-03-06T10:07:48.007Z,240
2023-03-06T10:08:51.107Z,236
2023-03-06T10:09:48.038Z,232
2023-03-06T10:10:48.070Z,232
2023-03-06T10:11:48.058Z,232
2023-03-06T10:12:48.046Z,240
2023-03-06T10:13:48.130Z,256
2023-03-06T10:14:51.692Z,256
2023-03-06T10:15:48.295Z,272
2023-03-06T10:16:48.059Z,304
2023-03-06T10:17:48.061Z,340
2023-03-06T10:18:48.093Z,356
2023-03-06T10:19:51.100Z,364
2023-03-06T10:20:48.105Z,352
2023-03-06T10:21:48.328Z,344
2023-03-06T10:23:05.335Z,324
2023-03-06T10:23:48.081Z,308
2023-03-06T10:24:48.091Z,300
2023-03-06T10:25:51.295Z,308
2023-03-06T10:26:48.651Z,316
2023-03-06T10:27:48.041Z,304
2023-03-06T10:28:48.089Z,288
2023-03-06T10:30:06.707Z,272
2023-03-06T10:30:51.988Z,268
2023-03-06T10:31:49.223Z,264
2023-03-06T10:32:55.902Z,260
2023-03-06T10:33:49.141Z,252
2023-03-06T10:34:48.109Z,252
2023-03-06T10:35:48.349Z,256
2023-03-06T10:36:48.109Z,272
2023-03-06T10:37:49.162Z,284
2023-03-06T10:38:48.179Z,292
2023-03-06T10:39:48.134Z,292
2023-03-06T10:40:48.107Z,296
2023-03-06T10:41:50.923Z,300
2023-03-06T10:42:49.493Z,296
2023-03-06T10:43:48.086Z,292
2023-03-06T10:44:48.129Z,288
2023-03-06T10:45:56.258Z,288
2023-03-06T10:46:48.685Z,284
2023-03-06T10:47:48.081Z,280
2023-03-06T10:48:49.543Z,280
2023-03-06T10:49:48.086Z,272
2023-03-06T10:50:48.140Z,272
2023-03-06T10:51:48.131Z,272
2023-03-06T10:52:48.095Z,284
2023-03-06T10:53:48.243Z,292
2023-03-06T10:54:48.142Z,292
2023-03-06T10:55:48.095Z,284
2023-03-06T10:56:48.141Z,252
2023-03-06T10:57:48.155Z,228
2023-03-06T10:58:48.127Z,240
2023-03-06T10:59:48.156Z,256
2023-03-06T11:00:48.177Z,280
2023-03-06T11:01:48.580Z,308
2023-03-06T11:02:48.196Z,328
2023-03-06T11:03:48.125Z,332
2023-03-06T11:04:48.416Z,324
2023-03-06T11:05:48.119Z,328
2023-03-06T11:06:48.117Z,352
2023-03-06T11:07:48.111Z,364
2023-03-06T11:08:51.274Z,352
2023-03-06T11:09:48.181Z,324
2023-03-06T11:10:48.124Z,308
2023-03-06T11:11:48.149Z,304
2023-03-06T11:12:48.133Z,320
2023-03-06T11:13:51.099Z,344
2023-03-06T11:14:48.125Z,364
2023-03-06T11:15:48.398Z,384
2023-03-06T11:16:48.173Z,396
2023-03-06T11:17:48.245Z,400
2023-03-06T11:18:48.118Z,404
2023-03-06T11:19:51.199Z,416
2023-03-06T11:21:01.603Z,424
2023-03-06T11:21:48.177Z,424
2023-03-06T11:22:51.323Z,404
2023-03-06T11:23:48.151Z,364
2023-03-06T11:24:49.222Z,340
2023-03-06T11:25:48.197Z,328
2023-03-06T11:26:48.174Z,336
2023-03-06T11:27:48.142Z,344
2023-03-06T11:28:48.171Z,356
2023-03-06T11:29:48.226Z,360
2023-03-06T11:30:48.125Z,344
2023-03-06T11:31:48.389Z,332
2023-03-06T11:32:48.204Z,340
2023-03-06T11:33:48.144Z,352
2023-03-06T11:34:50.350Z,364
2023-03-06T11:35:51.314Z,376
2023-03-06T11:36:48.176Z,388
2023-03-06T11:37:48.155Z,392
2023-03-06T11:38:48.190Z,384
2023-03-06T11:39:48.154Z,384
2023-03-06T11:40:48.115Z,384
2023-03-06T11:41:48.297Z,380
2023-03-06T11:42:48.153Z,372
2023-03-06T11:43:48.141Z,388
2023-03-06T11:44:48.219Z,424
2023-03-06T11:45:48.147Z,444
2023-03-06T11:46:51.490Z,440
2023-03-06T11:47:48.167Z,428
2023-03-06T11:48:48.171Z,428
2023-03-06T11:49:50.948Z,420
2023-03-06T11:50:48.183Z,416
2023-03-06T11:51:48.239Z,412
2023-03-06T11:52:48.329Z,400
2023-03-06T11:53:49.392Z,408
2023-03-06T11:54:48.182Z,428
2023-03-06T11:55:51.196Z,416
2023-03-06T11:56:48.224Z,380
2023-03-06T11:57:54.073Z,336
2023-03-06T11:58:48.225Z,324
2023-03-06T11:59:48.178Z,324
2023-03-06T12:00:48.152Z,340
2023-03-06T12:01:48.403Z,376
2023-03-06T12:02:48.168Z,412
2023-03-06T12:03:48.173Z,404
2023-03-06T12:04:48.241Z,384
2023-03-06T12:05:48.509Z,392
2023-03-06T12:06:48.212Z,420
2023-03-06T12:07:48.182Z,524
2023-03-06T12:08:49.228Z,556
2023-03-06T12:09:48.190Z,560
2023-03-06T12:10:54.388Z,544
2023-03-06T12:11:48.246Z,540
2023-03-06T12:12:49.198Z,532
2023-03-06T12:14:48.206Z,524
2023-03-06T12:15:48.206Z,528
2023-03-06T12:16:48.375Z,540
2023-03-06T12:17:48.194Z,552
2023-03-06T12:18:48.190Z,568
2023-03-06T12:19:50.974Z,568
2023-03-06T12:20:48.191Z,560
2023-03-06T12:21:48.236Z,552
2023-03-06T12:23:17.342Z,572
2023-03-06T12:23:48.218Z,572
2023-03-06T12:24:51.220Z,548
2023-03-06T12:25:48.208Z,516
2023-03-06T12:26:48.325Z,500
2023-03-06T12:27:48.210Z,488
2023-03-06T12:28:50.538Z,460
2023-03-06T12:29:48.277Z,436
2023-03-06T12:30:51.299Z,416
2023-03-06T12:31:48.411Z,388
2023-03-06T12:32:48.438Z,376
2023-03-06T12:33:48.210Z,372
2023-03-06T12:34:50.181Z,360
2023-03-06T12:36:04.158Z,380
2023-03-06T12:36:49.479Z,404
2023-03-06T12:37:48.287Z,436
2023-03-06T12:38:52.375Z,468
2023-03-06T12:39:50.337Z,480
2023-03-06T12:40:48.275Z,484
2023-03-06T12:41:53.046Z,476
2023-03-06T12:42:48.620Z,468
2023-03-06T12:43:50.421Z,468
2023-03-06T12:44:49.768Z,468
2023-03-06T12:45:49.889Z,452
2023-03-06T12:46:51.803Z,480
2023-03-06T12:47:48.228Z,484
2023-03-06T12:48:48.234Z,492
2023-03-06T12:49:49.821Z,488
2023-03-06T12:50:48.535Z,480
2023-03-06T12:51:51.296Z,468
2023-03-06T12:52:52.319Z,468
2023-03-06T12:53:51.587Z,464
2023-03-06T12:54:48.766Z,448
2023-03-06T12:55:48.501Z,432
2023-03-06T12:56:48.554Z,424
2023-03-06T12:57:51.815Z,432
2023-03-06T12:58:48.655Z,436
2023-03-06T12:59:51.124Z,436
2023-03-06T13:01:03.478Z,436
2023-03-06T13:01:48.994Z,440
2023-03-06T13:02:48.958Z,440
2023-03-06T13:03:48.667Z,440
2023-03-06T13:04:48.632Z,424
2023-03-06T13:05:48.721Z,420
2023-03-06T13:06:57.341Z,424
2023-03-06T13:07:48.384Z,428
2023-03-06T13:08:52.986Z,432
2023-03-06T13:09:48.180Z,428
2023-03-06T13:10:48.386Z,396
2023-03-06T13:11:48.651Z,352
2023-03-06T13:12:48.524Z,324
2023-03-06T13:13:48.744Z,280
2023-03-06T13:15:03.163Z,220
2023-03-06T13:15:48.325Z,200
2023-03-06T13:16:49.039Z,160
2023-03-06T13:17:48.603Z,152
2023-03-06T13:18:51.460Z,164
2023-03-06T13:19:48.206Z,220
2023-03-06T13:20:48.542Z,308
2023-03-06T13:21:48.636Z,356
2023-03-06T13:22:48.957Z,380
2023-03-06T13:23:48.527Z,360
2023-03-06T13:24:50.803Z,388
2023-03-06T13:25:49.107Z,388
2023-03-06T13:26:48.633Z,388
2023-03-06T13:27:48.579Z,384
2023-03-06T13:28:48.523Z,376
2023-03-06T13:29:48.610Z,368
2023-03-06T13:30:50.465Z,344
2023-03-06T13:31:48.952Z,328
2023-03-06T13:32:48.698Z,312
2023-03-06T13:33:48.709Z,288
2023-03-06T13:34:48.620Z,256
2023-03-06T13:35:51.861Z,224
2023-03-06T13:36:51.558Z,208
2023-03-06T13:37:49.649Z,208
2023-03-06T13:38:48.690Z,204
2023-03-06T13:39:48.980Z,196
2023-03-06T13:40:51.390Z,188
2023-03-06T13:41:51.127Z,180
2023-03-06T13:42:48.658Z,176
2023-03-06T13:43:50.571Z,180
2023-03-06T13:44:48.881Z,188
2023-03-06T13:45:49.188Z,200
2023-03-06T13:46:51.496Z,212
2023-03-06T13:48:48.523Z,224
2023-03-06T13:48:59.791Z,224
2023-03-06T13:50:00.269Z,220
2023-03-06T13:50:59.391Z,220
2023-03-06T13:51:59.558Z,224
2023-03-06T13:53:03.594Z,236
2023-03-06T13:53:59.732Z,260
2023-03-06T13:54:59.697Z,296
2023-03-06T13:55:59.598Z,308
2023-03-06T13:56:59.753Z,332
2023-03-06T13:57:59.487Z,328
2023-03-06T13:59:02.613Z,312
2023-03-06T14:00:17.889Z,288
2023-03-06T14:00:59.517Z,276
2023-03-06T14:01:59.813Z,264
2023-03-06T14:03:00.012Z,260
2023-03-06T14:04:02.639Z,256
2023-03-06T14:04:59.752Z,248
2023-03-06T14:05:59.521Z,232
2023-03-06T14:06:59.854Z,220
2023-03-06T14:07:59.570Z,200
2023-03-06T14:08:59.581Z,184
2023-03-06T14:09:59.678Z,168
2023-03-06T14:11:02.324Z,148
2023-03-06T14:11:59.554Z,132
2023-03-06T14:12:59.438Z,120
2023-03-06T14:13:59.557Z,112
2023-03-06T14:15:00.263Z,104
2023-03-06T14:15:59.651Z,104
2023-03-06T14:16:59.216Z,104